sensor_id;sensor_type;location;lat;lon;timestamp;temperature;humidity
59128;DHT22;44912;52.754;5.994;2022-07-29T00:00:14;15.40;99.90
59128;DHT22;44912;52.754;5.994;2022-07-29T00:02:40;15.40;99.90
59128;DHT22;44912;52.754;5.994;2022-07-29T00:05:07;15.40;99.90
59128;DHT22;44912;52.754;5.994;2022-07-29T00:07:33;15.30;99.90
59128;DHT22;44912;52.754;5.994;2022-07-29T00:09:58;15.30;99.90
59128;DHT22;44912;52.754;5.994;2022-07-29T00:12:25;15.30;99.90
59128;DHT22;44912;52.754;5.994;2022-07-29T00:14:51;15.30;99.90
59128;DHT22;44912;52.754;5.994;2022-07-29T00:17:16;15.30;99.90
59128;DHT22;44912;52.754;5.994;2022-07-29T00:19:42;15.30;99.90
59128;DHT22;44912;52.754;5.994;2022-07-29T00:22:07;15.20;99.90
59128;DHT22;44912;52.754;5.994;2022-07-29T00:24:33;15.20;99.90
59128;DHT22;44912;52.754;5.994;2022-07-29T00:26:58;15.20;99.90
59128;DHT22;44912;52.754;5.994;2022-07-29T00:29:24;15.10;99.90
59128;DHT22;44912;52.754;5.994;2022-07-29T00:31:50;15.10;99.90
59128;DHT22;44912;52.754;5.994;2022-07-29T00:34:16;15.10;99.90
59128;DHT22;44912;52.754;5.994;2022-07-29T00:37:00;15.10;99.90
59128;DHT22;44912;52.754;5.994;2022-07-29T00:39:25;15.10;99.90
59128;DHT22;44912;52.754;5.994;2022-07-29T00:41:51;15.20;99.90
59128;DHT22;44912;52.754;5.994;2022-07-29T00:44:17;15.20;99.90
59128;DHT22;44912;52.754;5.994;2022-07-29T00:46:42;15.20;99.90
59128;DHT22;44912;52.754;5.994;2022-07-29T00:49:13;15.20;99.90
59128;DHT22;44912;52.754;5.994;2022-07-29T00:51:39;15.20;99.90
59128;DHT22;44912;52.754;5.994;2022-07-29T00:54:05;15.10;99.90
59128;DHT22;44912;52.754;5.994;2022-07-29T00:56:31;15.20;99.90
59128;DHT22;44912;52.754;5.994;2022-07-29T00:58:57;15.20;99.90
59128;DHT22;44912;52.754;5.994;2022-07-29T01:01:23;15.20;99.90
59128;DHT22;44912;52.754;5.994;2022-07-29T01:03:49;15.20;99.90
59128;DHT22;44912;52.754;5.994;2022-07-29T01:06:16;15.20;99.90
59128;DHT22;44912;52.754;5.994;2022-07-29T01:08:43;15.10;99.90
59128;DHT22;44912;52.754;5.994;2022-07-29T01:11:09;15.10;99.90
59128;DHT22;44912;52.754;5.994;2022-07-29T01:13:36;15.20;99.90
59128;DHT22;44912;52.754;5.994;2022-07-29T01:16:14;15.10;99.90
59128;DHT22;44912;52.754;5.994;2022-07-29T01:18:44;15.20;99.90
59128;DHT22;44912;52.754;5.994;2022-07-29T01:24:33;15.20;99.90
59128;DHT22;44912;52.754;5.994;2022-07-29T01:29:46;15.20;99.90
59128;DHT22;44912;52.754;5.994;2022-07-29T01:32:18;15.30;99.90
59128;DHT22;44912;52.754;5.994;2022-07-29T01:34:48;15.30;99.90
59128;DHT22;44912;52.754;5.994;2022-07-29T01:37:26;15.20;99.90
59128;DHT22;44912;52.754;5.994;2022-07-29T01:39:56;15.20;99.90
59128;DHT22;44912;52.754;5.994;2022-07-29T01:42:33;15.30;99.90
59128;DHT22;44912;52.754;5.994;2022-07-29T01:45:23;15.30;99.90
59128;DHT22;44912;52.754;5.994;2022-07-29T01:50:48;15.30;99.90
59128;DHT22;44912;52.754;5.994;2022-07-29T01:53:21;15.30;99.90
59128;DHT22;44912;52.754;5.994;2022-07-29T01:55:48;15.30;99.90
59128;DHT22;44912;52.754;5.994;2022-07-29T01:58:17;15.30;99.90
59128;DHT22;44912;52.754;5.994;2022-07-29T02:00:45;15.30;99.90
59128;DHT22;44912;52.754;5.994;2022-07-29T02:03:12;15.30;99.90
59128;DHT22;44912;52.754;5.994;2022-07-29T02:05:41;15.30;99.90
59128;DHT22;44912;52.754;5.994;2022-07-29T02:08:08;15.30;99.90
59128;DHT22;44912;52.754;5.994;2022-07-29T02:10:36;15.30;99.90
59128;DHT22;44912;52.754;5.994;2022-07-29T02:13:03;15.30;99.90
59128;DHT22;44912;52.754;5.994;2022-07-29T02:15:32;15.20;99.90
59128;DHT22;44912;52.754;5.994;2022-07-29T02:18:20;15.20;99.90
59128;DHT22;44912;52.754;5.994;2022-07-29T02:20:50;15.20;99.90
59128;DHT22;44912;52.754;5.994;2022-07-29T02:23:21;15.20;99.90
59128;DHT22;44912;52.754;5.994;2022-07-29T02:25:49;15.20;99.90
59128;DHT22;44912;52.754;5.994;2022-07-29T02:28:17;15.20;99.90
59128;DHT22;44912;52.754;5.994;2022-07-29T02:30:45;15.20;99.90
59128;DHT22;44912;52.754;5.994;2022-07-29T02:33:14;15.20;99.90
59128;DHT22;44912;52.754;5.994;2022-07-29T02:35:41;15.20;99.90
59128;DHT22;44912;52.754;5.994;2022-07-29T02:38:10;15.20;99.90
59128;DHT22;44912;52.754;5.994;2022-07-29T02:40:56;15.20;99.90
59128;DHT22;44912;52.754;5.994;2022-07-29T02:43:24;15.10;99.90
59128;DHT22;44912;52.754;5.994;2022-07-29T02:45:52;15.10;99.90
59128;DHT22;44912;52.754;5.994;2022-07-29T02:48:24;15.10;99.90
59128;DHT22;44912;52.754;5.994;2022-07-29T02:50:57;15.10;99.90
59128;DHT22;44912;52.754;5.994;2022-07-29T02:53:26;15.10;99.90
59128;DHT22;44912;52.754;5.994;2022-07-29T02:55:58;15.00;99.90
59128;DHT22;44912;52.754;5.994;2022-07-29T02:58:31;15.00;99.90
59128;DHT22;44912;52.754;5.994;2022-07-29T03:01:10;15.00;99.90
59128;DHT22;44912;52.754;5.994;2022-07-29T03:03:38;15.00;99.90
59128;DHT22;44912;52.754;5.994;2022-07-29T03:06:05;14.90;99.90
59128;DHT22;44912;52.754;5.994;2022-07-29T03:08:32;14.90;99.90
59128;DHT22;44912;52.754;5.994;2022-07-29T03:11:00;14.90;99.90
59128;DHT22;44912;52.754;5.994;2022-07-29T03:13:27;14.90;99.90
59128;DHT22;44912;52.754;5.994;2022-07-29T03:15:55;14.90;99.90
59128;DHT22;44912;52.754;5.994;2022-07-29T03:18:21;14.90;99.90
59128;DHT22;44912;52.754;5.994;2022-07-29T03:20:47;14.90;99.90
59128;DHT22;44912;52.754;5.994;2022-07-29T03:23:21;14.90;99.90
59128;DHT22;44912;52.754;5.994;2022-07-29T03:25:48;14.90;99.90
59128;DHT22;44912;52.754;5.994;2022-07-29T03:28:14;14.90;99.90
59128;DHT22;44912;52.754;5.994;2022-07-29T03:30:40;14.90;99.90
59128;DHT22;44912;52.754;5.994;2022-07-29T03:33:05;14.80;99.90
59128;DHT22;44912;52.754;5.994;2022-07-29T03:35:31;14.80;99.90
59128;DHT22;44912;52.754;5.994;2022-07-29T03:37:57;14.80;99.90
59128;DHT22;44912;52.754;5.994;2022-07-29T03:40:30;14.80;99.90
59128;DHT22;44912;52.754;5.994;2022-07-29T03:42:59;14.70;99.90
59128;DHT22;44912;52.754;5.994;2022-07-29T03:45:26;14.70;99.90
59128;DHT22;44912;52.754;5.994;2022-07-29T03:47:56;14.70;99.90
59128;DHT22;44912;52.754;5.994;2022-07-29T03:50:22;14.60;99.90
59128;DHT22;44912;52.754;5.994;2022-07-29T03:52:48;14.60;99.90
59128;DHT22;44912;52.754;5.994;2022-07-29T03:55:14;14.60;99.90
59128;DHT22;44912;52.754;5.994;2022-07-29T03:57:41;14.50;99.90
59128;DHT22;44912;52.754;5.994;2022-07-29T04:00:08;14.50;99.90
59128;DHT22;44912;52.754;5.994;2022-07-29T04:02:34;14.50;99.90
59128;DHT22;44912;52.754;5.994;2022-07-29T04:05:01;14.50;99.90
59128;DHT22;44912;52.754;5.994;2022-07-29T04:07:26;14.50;99.90
59128;DHT22;44912;52.754;5.994;2022-07-29T04:09:52;14.40;99.90
59128;DHT22;44912;52.754;5.994;2022-07-29T04:12:17;14.40;99.90
59128;DHT22;44912;52.754;5.994;2022-07-29T04:14:43;14.40;99.90
59128;DHT22;44912;52.754;5.994;2022-07-29T04:17:08;14.30;99.90
59128;DHT22;44912;52.754;5.994;2022-07-29T04:19:34;14.30;99.90
59128;DHT22;44912;52.754;5.994;2022-07-29T04:22:01;14.30;99.90
59128;DHT22;44912;52.754;5.994;2022-07-29T04:24:27;14.20;99.90
59128;DHT22;44912;52.754;5.994;2022-07-29T04:26:53;14.20;99.90
59128;DHT22;44912;52.754;5.994;2022-07-29T04:29:18;14.20;99.90
59128;DHT22;44912;52.754;5.994;2022-07-29T04:31:45;14.10;99.90
59128;DHT22;44912;52.754;5.994;2022-07-29T04:34:11;14.10;99.90
59128;DHT22;44912;52.754;5.994;2022-07-29T04:36:36;14.10;99.90
59128;DHT22;44912;52.754;5.994;2022-07-29T04:39:02;14.10;99.90
59128;DHT22;44912;52.754;5.994;2022-07-29T04:41:28;14.10;99.90
59128;DHT22;44912;52.754;5.994;2022-07-29T04:43:54;14.10;99.90
59128;DHT22;44912;52.754;5.994;2022-07-29T04:46:20;14.10;99.90
59128;DHT22;44912;52.754;5.994;2022-07-29T04:48:46;14.10;99.90
59128;DHT22;44912;52.754;5.994;2022-07-29T04:51:13;14.10;99.90
59128;DHT22;44912;52.754;5.994;2022-07-29T04:53:39;14.10;99.90
59128;DHT22;44912;52.754;5.994;2022-07-29T04:56:04;14.20;99.90
59128;DHT22;44912;52.754;5.994;2022-07-29T04:58:30;14.20;99.90
59128;DHT22;44912;52.754;5.994;2022-07-29T05:00:56;14.20;99.90
59128;DHT22;44912;52.754;5.994;2022-07-29T05:03:22;14.20;99.90
59128;DHT22;44912;52.754;5.994;2022-07-29T05:05:47;14.20;99.90
59128;DHT22;44912;52.754;5.994;2022-07-29T05:08:13;14.20;99.90
59128;DHT22;44912;52.754;5.994;2022-07-29T05:10:38;14.20;99.90
59128;DHT22;44912;52.754;5.994;2022-07-29T05:13:07;14.20;99.90
59128;DHT22;44912;52.754;5.994;2022-07-29T05:15:34;14.30;99.90
59128;DHT22;44912;52.754;5.994;2022-07-29T05:18:00;14.30;99.90
59128;DHT22;44912;52.754;5.994;2022-07-29T05:20:26;14.30;99.90
59128;DHT22;44912;52.754;5.994;2022-07-29T05:22:55;14.40;99.90
59128;DHT22;44912;52.754;5.994;2022-07-29T05:25:21;14.50;99.90
59128;DHT22;44912;52.754;5.994;2022-07-29T05:27:46;14.50;99.90
59128;DHT22;44912;52.754;5.994;2022-07-29T05:30:12;14.60;99.90
59128;DHT22;44912;52.754;5.994;2022-07-29T05:32:37;14.70;99.90
59128;DHT22;44912;52.754;5.994;2022-07-29T05:35:03;14.80;99.90
59128;DHT22;44912;52.754;5.994;2022-07-29T05:37:29;14.90;99.90
59128;DHT22;44912;52.754;5.994;2022-07-29T05:39:54;15.00;99.90
59128;DHT22;44912;52.754;5.994;2022-07-29T05:42:20;15.10;99.90
59128;DHT22;44912;52.754;5.994;2022-07-29T05:44:45;15.20;99.90
59128;DHT22;44912;52.754;5.994;2022-07-29T05:47:12;15.30;99.90
59128;DHT22;44912;52.754;5.994;2022-07-29T05:49:38;15.40;99.90
59128;DHT22;44912;52.754;5.994;2022-07-29T05:52:04;15.60;99.90
59128;DHT22;44912;52.754;5.994;2022-07-29T05:54:29;15.70;99.90
59128;DHT22;44912;52.754;5.994;2022-07-29T05:56:56;15.80;99.90
59128;DHT22;44912;52.754;5.994;2022-07-29T05:59:21;15.80;99.90
59128;DHT22;44912;52.754;5.994;2022-07-29T06:01:47;15.90;99.90
59128;DHT22;44912;52.754;5.994;2022-07-29T06:04:12;15.90;99.90
59128;DHT22;44912;52.754;5.994;2022-07-29T06:06:38;15.90;99.90
59128;DHT22;44912;52.754;5.994;2022-07-29T06:09:03;15.90;99.90
59128;DHT22;44912;52.754;5.994;2022-07-29T06:11:29;15.90;99.90
59128;DHT22;44912;52.754;5.994;2022-07-29T06:13:55;15.90;99.90
59128;DHT22;44912;52.754;5.994;2022-07-29T06:16:20;15.90;99.90
59128;DHT22;44912;52.754;5.994;2022-07-29T06:18:49;15.90;99.90
59128;DHT22;44912;52.754;5.994;2022-07-29T06:21:14;15.90;99.90
59128;DHT22;44912;52.754;5.994;2022-07-29T06:23:40;15.90;99.90
59128;DHT22;44912;52.754;5.994;2022-07-29T06:26:05;16.00;99.90
59128;DHT22;44912;52.754;5.994;2022-07-29T06:28:32;16.00;99.90
59128;DHT22;44912;52.754;5.994;2022-07-29T06:30:58;16.00;99.90
59128;DHT22;44912;52.754;5.994;2022-07-29T06:33:23;16.00;99.90
59128;DHT22;44912;52.754;5.994;2022-07-29T06:35:49;16.00;99.90
59128;DHT22;44912;52.754;5.994;2022-07-29T06:38:15;15.90;99.90
59128;DHT22;44912;52.754;5.994;2022-07-29T06:40:44;15.90;99.90
59128;DHT22;44912;52.754;5.994;2022-07-29T06:43:35;15.90;99.90
59128;DHT22;44912;52.754;5.994;2022-07-29T06:46:08;15.90;99.90
59128;DHT22;44912;52.754;5.994;2022-07-29T06:48:34;15.90;99.90
59128;DHT22;44912;52.754;5.994;2022-07-29T06:51:00;15.80;99.90
59128;DHT22;44912;52.754;5.994;2022-07-29T06:53:26;15.70;99.90
59128;DHT22;44912;52.754;5.994;2022-07-29T06:55:52;15.80;99.90
59128;DHT22;44912;52.754;5.994;2022-07-29T06:58:18;15.80;99.90
59128;DHT22;44912;52.754;5.994;2022-07-29T07:00:46;15.80;99.90
59128;DHT22;44912;52.754;5.994;2022-07-29T07:03:13;15.70;99.90
59128;DHT22;44912;52.754;5.994;2022-07-29T07:05:38;15.70;99.90
59128;DHT22;44912;52.754;5.994;2022-07-29T07:08:04;15.70;99.90
59128;DHT22;44912;52.754;5.994;2022-07-29T07:10:30;15.70;99.90
59128;DHT22;44912;52.754;5.994;2022-07-29T07:12:56;15.60;99.90
59128;DHT22;44912;52.754;5.994;2022-07-29T07:15:21;15.50;99.90
59128;DHT22;44912;52.754;5.994;2022-07-29T07:17:48;15.50;99.90
59128;DHT22;44912;52.754;5.994;2022-07-29T07:20:14;15.50;99.90
59128;DHT22;44912;52.754;5.994;2022-07-29T07:22:40;15.50;99.90
59128;DHT22;44912;52.754;5.994;2022-07-29T07:25:06;15.50;99.90
59128;DHT22;44912;52.754;5.994;2022-07-29T07:27:32;15.60;99.90
59128;DHT22;44912;52.754;5.994;2022-07-29T07:29:57;15.60;99.90
59128;DHT22;44912;52.754;5.994;2022-07-29T07:32:23;15.70;99.90
59128;DHT22;44912;52.754;5.994;2022-07-29T07:34:48;15.70;99.90
59128;DHT22;44912;52.754;5.994;2022-07-29T07:37:14;15.80;99.90
59128;DHT22;44912;52.754;5.994;2022-07-29T07:39:40;15.80;99.90
59128;DHT22;44912;52.754;5.994;2022-07-29T07:42:06;15.90;99.90
59128;DHT22;44912;52.754;5.994;2022-07-29T07:44:31;15.90;99.90
59128;DHT22;44912;52.754;5.994;2022-07-29T07:46:57;15.90;99.90
59128;DHT22;44912;52.754;5.994;2022-07-29T07:49:22;15.90;99.90
59128;DHT22;44912;52.754;5.994;2022-07-29T07:51:48;15.90;99.90
59128;DHT22;44912;52.754;5.994;2022-07-29T07:54:14;15.90;99.90
59128;DHT22;44912;52.754;5.994;2022-07-29T07:56:39;15.90;99.90
59128;DHT22;44912;52.754;5.994;2022-07-29T07:59:05;16.00;99.90
59128;DHT22;44912;52.754;5.994;2022-07-29T08:01:30;16.00;99.90
59128;DHT22;44912;52.754;5.994;2022-07-29T08:03:56;16.10;99.90
59128;DHT22;44912;52.754;5.994;2022-07-29T08:06:21;16.20;99.90
59128;DHT22;44912;52.754;5.994;2022-07-29T08:08:49;16.20;99.90
59128;DHT22;44912;52.754;5.994;2022-07-29T08:11:14;16.30;99.90
59128;DHT22;44912;52.754;5.994;2022-07-29T08:13:40;16.40;99.90
59128;DHT22;44912;52.754;5.994;2022-07-29T08:16:06;16.40;99.90
59128;DHT22;44912;52.754;5.994;2022-07-29T08:18:40;16.50;99.90
59128;DHT22;44912;52.754;5.994;2022-07-29T08:21:06;16.80;99.90
59128;DHT22;44912;52.754;5.994;2022-07-29T08:23:32;16.90;99.90
59128;DHT22;44912;52.754;5.994;2022-07-29T08:26:08;17.00;99.90
59128;DHT22;44912;52.754;5.994;2022-07-29T08:28:43;17.20;99.90
59128;DHT22;44912;52.754;5.994;2022-07-29T08:31:15;17.20;99.90
59128;DHT22;44912;52.754;5.994;2022-07-29T08:33:41;17.30;99.90
59128;DHT22;44912;52.754;5.994;2022-07-29T08:36:07;17.30;99.90
59128;DHT22;44912;52.754;5.994;2022-07-29T08:38:33;17.30;99.90
59128;DHT22;44912;52.754;5.994;2022-07-29T08:41:00;17.20;99.90
59128;DHT22;44912;52.754;5.994;2022-07-29T08:43:30;17.20;99.90
59128;DHT22;44912;52.754;5.994;2022-07-29T08:45:56;17.20;99.90
59128;DHT22;44912;52.754;5.994;2022-07-29T08:48:22;17.20;99.90
59128;DHT22;44912;52.754;5.994;2022-07-29T08:50:52;17.20;99.90
59128;DHT22;44912;52.754;5.994;2022-07-29T08:53:19;17.10;99.90
59128;DHT22;44912;52.754;5.994;2022-07-29T08:55:47;17.00;99.90
59128;DHT22;44912;52.754;5.994;2022-07-29T08:58:13;17.00;99.90
59128;DHT22;44912;52.754;5.994;2022-07-29T09:00:50;17.00;99.90
59128;DHT22;44912;52.754;5.994;2022-07-29T09:03:19;17.00;99.90
59128;DHT22;44912;52.754;5.994;2022-07-29T09:05:46;16.90;99.90
59128;DHT22;44912;52.754;5.994;2022-07-29T09:08:16;17.00;99.90
59128;DHT22;44912;52.754;5.994;2022-07-29T09:10:42;17.00;99.90
59128;DHT22;44912;52.754;5.994;2022-07-29T09:13:08;17.10;99.90
59128;DHT22;44912;52.754;5.994;2022-07-29T09:15:34;17.10;99.90
59128;DHT22;44912;52.754;5.994;2022-07-29T09:18:00;17.30;99.90
59128;DHT22;44912;52.754;5.994;2022-07-29T09:20:26;17.60;99.90
59128;DHT22;44912;52.754;5.994;2022-07-29T09:23:12;17.90;99.90
59128;DHT22;44912;52.754;5.994;2022-07-29T09:25:39;18.30;99.90
59128;DHT22;44912;52.754;5.994;2022-07-29T09:28:14;18.60;99.90
59128;DHT22;44912;52.754;5.994;2022-07-29T09:30:54;18.80;99.90
59128;DHT22;44912;52.754;5.994;2022-07-29T09:33:24;18.80;99.90
59128;DHT22;44912;52.754;5.994;2022-07-29T09:36:07;18.90;99.90
59128;DHT22;44912;52.754;5.994;2022-07-29T09:38:33;19.10;99.90
59128;DHT22;44912;52.754;5.994;2022-07-29T09:41:02;19.10;99.90
59128;DHT22;44912;52.754;5.994;2022-07-29T09:43:28;19.30;99.90
59128;DHT22;44912;52.754;5.994;2022-07-29T09:45:54;19.30;99.90
59128;DHT22;44912;52.754;5.994;2022-07-29T09:48:24;19.40;99.90
59128;DHT22;44912;52.754;5.994;2022-07-29T09:50:50;19.60;99.90
59128;DHT22;44912;52.754;5.994;2022-07-29T09:53:37;19.90;99.90
59128;DHT22;44912;52.754;5.994;2022-07-29T09:56:04;20.30;99.90
59128;DHT22;44912;52.754;5.994;2022-07-29T09:58:30;20.60;99.90
59128;DHT22;44912;52.754;5.994;2022-07-29T10:00:58;21.00;99.90
59128;DHT22;44912;52.754;5.994;2022-07-29T10:03:23;21.40;99.90
59128;DHT22;44912;52.754;5.994;2022-07-29T10:08:31;21.60;99.90
59128;DHT22;44912;52.754;5.994;2022-07-29T10:11:12;21.70;99.90
59128;DHT22;44912;52.754;5.994;2022-07-29T10:13:39;21.70;99.90
59128;DHT22;44912;52.754;5.994;2022-07-29T10:16:06;21.70;99.90
59128;DHT22;44912;52.754;5.994;2022-07-29T10:18:32;21.80;99.90
59128;DHT22;44912;52.754;5.994;2022-07-29T10:20:58;21.80;99.90
59128;DHT22;44912;52.754;5.994;2022-07-29T10:23:27;21.90;99.90
59128;DHT22;44912;52.754;5.994;2022-07-29T10:25:53;21.90;99.90
59128;DHT22;44912;52.754;5.994;2022-07-29T10:28:19;21.90;99.90
59128;DHT22;44912;52.754;5.994;2022-07-29T10:30:45;22.00;99.90
59128;DHT22;44912;52.754;5.994;2022-07-29T10:33:35;22.00;99.90
59128;DHT22;44912;52.754;5.994;2022-07-29T10:38:50;22.40;99.90
59128;DHT22;44912;52.754;5.994;2022-07-29T10:44:03;22.60;99.90
59128;DHT22;44912;52.754;5.994;2022-07-29T10:46:35;22.70;99.90
59128;DHT22;44912;52.754;5.994;2022-07-29T10:49:12;23.10;99.90
59128;DHT22;44912;52.754;5.994;2022-07-29T10:52:05;23.30;99.90
59128;DHT22;44912;52.754;5.994;2022-07-29T10:54:44;23.30;99.90
59128;DHT22;44912;52.754;5.994;2022-07-29T10:57:29;23.30;99.90
59128;DHT22;44912;52.754;5.994;2022-07-29T11:05:09;23.80;99.90
59128;DHT22;44912;52.754;5.994;2022-07-29T11:07:36;23.70;99.90
59128;DHT22;44912;52.754;5.994;2022-07-29T11:15:09;23.80;99.90
59128;DHT22;44912;52.754;5.994;2022-07-29T11:18:08;23.90;99.90
59128;DHT22;44912;52.754;5.994;2022-07-29T11:25:42;24.20;99.90
59128;DHT22;44912;52.754;5.994;2022-07-29T11:28:18;24.40;99.90
59128;DHT22;44912;52.754;5.994;2022-07-29T11:30:52;24.60;99.90
59128;DHT22;44912;52.754;5.994;2022-07-29T11:33:32;24.70;99.90
59128;DHT22;44912;52.754;5.994;2022-07-29T11:36:11;24.80;99.90
59128;DHT22;44912;52.754;5.994;2022-07-29T11:38:37;24.60;99.90
59128;DHT22;44912;52.754;5.994;2022-07-29T11:41:25;24.40;99.90
59128;DHT22;44912;52.754;5.994;2022-07-29T11:43:59;24.20;99.90
59128;DHT22;44912;52.754;5.994;2022-07-29T11:46:48;24.20;99.90
59128;DHT22;44912;52.754;5.994;2022-07-29T11:49:26;24.20;99.90
59128;DHT22;44912;52.754;5.994;2022-07-29T11:51:56;24.20;99.90
59128;DHT22;44912;52.754;5.994;2022-07-29T11:54:26;24.20;99.90
59128;DHT22;44912;52.754;5.994;2022-07-29T11:56:52;24.10;99.90
59128;DHT22;44912;52.754;5.994;2022-07-29T11:59:19;24.00;99.90
59128;DHT22;44912;52.754;5.994;2022-07-29T12:01:54;23.90;99.90
59128;DHT22;44912;52.754;5.994;2022-07-29T12:04:20;24.00;99.90
59128;DHT22;44912;52.754;5.994;2022-07-29T12:06:50;24.30;99.90
59128;DHT22;44912;52.754;5.994;2022-07-29T12:09:16;24.60;99.90
59128;DHT22;44912;52.754;5.994;2022-07-29T12:11:43;25.00;99.90
59128;DHT22;44912;52.754;5.994;2022-07-29T12:14:08;25.40;99.90
59128;DHT22;44912;52.754;5.994;2022-07-29T12:16:37;25.50;99.90
59128;DHT22;44912;52.754;5.994;2022-07-29T12:19:04;25.40;99.90
59128;DHT22;44912;52.754;5.994;2022-07-29T12:21:46;25.20;99.90
59128;DHT22;44912;52.754;5.994;2022-07-29T12:24:13;25.20;99.90
59128;DHT22;44912;52.754;5.994;2022-07-29T12:26:59;25.30;99.90
59128;DHT22;44912;52.754;5.994;2022-07-29T12:29:25;25.30;99.90
59128;DHT22;44912;52.754;5.994;2022-07-29T12:31:54;25.20;99.90
59128;DHT22;44912;52.754;5.994;2022-07-29T12:34:23;25.00;99.90
59128;DHT22;44912;52.754;5.994;2022-07-29T12:36:49;25.20;99.90
59128;DHT22;44912;52.754;5.994;2022-07-29T12:39:16;25.60;99.90
59128;DHT22;44912;52.754;5.994;2022-07-29T12:41:42;26.00;99.90
59128;DHT22;44912;52.754;5.994;2022-07-29T12:44:08;26.30;99.90
59128;DHT22;44912;52.754;5.994;2022-07-29T12:46:34;26.60;99.90
59128;DHT22;44912;52.754;5.994;2022-07-29T12:48:59;26.80;99.90
59128;DHT22;44912;52.754;5.994;2022-07-29T12:51:43;26.90;99.90
59128;DHT22;44912;52.754;5.994;2022-07-29T12:54:12;26.80;99.90
59128;DHT22;44912;52.754;5.994;2022-07-29T12:56:42;26.40;99.90
59128;DHT22;44912;52.754;5.994;2022-07-29T12:59:26;26.20;99.90
59128;DHT22;44912;52.754;5.994;2022-07-29T13:01:52;26.20;99.90
59128;DHT22;44912;52.754;5.994;2022-07-29T13:04:31;26.00;99.90
59128;DHT22;44912;52.754;5.994;2022-07-29T13:06:59;25.90;99.90
59128;DHT22;44912;52.754;5.994;2022-07-29T13:09:42;26.00;99.90
59128;DHT22;44912;52.754;5.994;2022-07-29T13:12:10;25.90;99.90
59128;DHT22;44912;52.754;5.994;2022-07-29T13:22:01;26.70;99.90
59128;DHT22;44912;52.754;5.994;2022-07-29T13:24:27;26.90;99.90
59128;DHT22;44912;52.754;5.994;2022-07-29T13:26:53;27.00;99.90
59128;DHT22;44912;52.754;5.994;2022-07-29T13:29:18;27.00;99.90
59128;DHT22;44912;52.754;5.994;2022-07-29T13:31:44;27.00;99.90
59128;DHT22;44912;52.754;5.994;2022-07-29T13:34:09;27.20;99.90
59128;DHT22;44912;52.754;5.994;2022-07-29T13:36:36;27.10;99.90
59128;DHT22;44912;52.754;5.994;2022-07-29T13:39:01;27.10;99.90
59128;DHT22;44912;52.754;5.994;2022-07-29T13:41:28;27.10;99.90
59128;DHT22;44912;52.754;5.994;2022-07-29T13:43:53;27.00;99.90
59128;DHT22;44912;52.754;5.994;2022-07-29T13:46:19;26.80;99.90
59128;DHT22;44912;52.754;5.994;2022-07-29T13:48:45;26.90;99.90
59128;DHT22;44912;52.754;5.994;2022-07-29T13:51:10;26.90;99.90
59128;DHT22;44912;52.754;5.994;2022-07-29T13:53:36;26.90;99.90
59128;DHT22;44912;52.754;5.994;2022-07-29T13:56:02;27.10;99.90
59128;DHT22;44912;52.754;5.994;2022-07-29T13:58:28;27.20;99.90
59128;DHT22;44912;52.754;5.994;2022-07-29T14:00:53;27.30;99.90
59128;DHT22;44912;52.754;5.994;2022-07-29T14:03:19;27.40;99.90
59128;DHT22;44912;52.754;5.994;2022-07-29T14:05:44;27.60;99.90
59128;DHT22;44912;52.754;5.994;2022-07-29T14:08:10;27.60;99.90
59128;DHT22;44912;52.754;5.994;2022-07-29T14:10:35;27.30;99.90
59128;DHT22;44912;52.754;5.994;2022-07-29T14:13:01;27.30;99.90
59128;DHT22;44912;52.754;5.994;2022-07-29T14:15:27;27.20;99.90
59128;DHT22;44912;52.754;5.994;2022-07-29T14:17:52;27.10;99.90
59128;DHT22;44912;52.754;5.994;2022-07-29T14:20:18;26.80;99.90
59128;DHT22;44912;52.754;5.994;2022-07-29T14:22:44;26.60;99.90
59128;DHT22;44912;52.754;5.994;2022-07-29T14:25:09;26.50;99.90
59128;DHT22;44912;52.754;5.994;2022-07-29T14:27:35;26.60;99.90
59128;DHT22;44912;52.754;5.994;2022-07-29T14:30:00;26.80;99.90
59128;DHT22;44912;52.754;5.994;2022-07-29T14:32:26;26.80;99.90
59128;DHT22;44912;52.754;5.994;2022-07-29T14:34:52;27.00;99.90
59128;DHT22;44912;52.754;5.994;2022-07-29T14:37:17;27.30;99.90
59128;DHT22;44912;52.754;5.994;2022-07-29T14:39:43;27.50;99.90
59128;DHT22;44912;52.754;5.994;2022-07-29T14:42:09;27.60;99.90
59128;DHT22;44912;52.754;5.994;2022-07-29T14:44:35;27.70;99.90
59128;DHT22;44912;52.754;5.994;2022-07-29T14:47:01;27.80;99.90
59128;DHT22;44912;52.754;5.994;2022-07-29T14:49:27;27.90;99.90
59128;DHT22;44912;52.754;5.994;2022-07-29T14:51:52;27.80;99.90
59128;DHT22;44912;52.754;5.994;2022-07-29T14:54:18;27.70;99.90
59128;DHT22;44912;52.754;5.994;2022-07-29T14:56:44;27.80;99.90
59128;DHT22;44912;52.754;5.994;2022-07-29T14:59:09;27.80;99.90
59128;DHT22;44912;52.754;5.994;2022-07-29T15:01:35;27.90;99.90
59128;DHT22;44912;52.754;5.994;2022-07-29T15:04:00;27.90;99.90
59128;DHT22;44912;52.754;5.994;2022-07-29T15:06:26;27.90;99.90
59128;DHT22;44912;52.754;5.994;2022-07-29T15:08:52;27.90;99.90
59128;DHT22;44912;52.754;5.994;2022-07-29T15:11:17;27.90;99.90
59128;DHT22;44912;52.754;5.994;2022-07-29T15:13:43;28.00;99.90
59128;DHT22;44912;52.754;5.994;2022-07-29T15:16:08;28.00;99.90
59128;DHT22;44912;52.754;5.994;2022-07-29T15:18:34;28.10;99.90
59128;DHT22;44912;52.754;5.994;2022-07-29T15:21:00;28.10;99.90
59128;DHT22;44912;52.754;5.994;2022-07-29T15:23:27;28.10;99.90
59128;DHT22;44912;52.754;5.994;2022-07-29T15:25:53;28.20;99.90
59128;DHT22;44912;52.754;5.994;2022-07-29T15:28:18;28.20;99.90
59128;DHT22;44912;52.754;5.994;2022-07-29T15:30:44;28.30;99.90
59128;DHT22;44912;52.754;5.994;2022-07-29T15:33:09;28.20;99.90
59128;DHT22;44912;52.754;5.994;2022-07-29T15:35:36;28.30;99.90
59128;DHT22;44912;52.754;5.994;2022-07-29T15:38:02;28.40;99.90
59128;DHT22;44912;52.754;5.994;2022-07-29T15:40:28;28.50;99.90
59128;DHT22;44912;52.754;5.994;2022-07-29T15:42:53;28.50;99.90
59128;DHT22;44912;52.754;5.994;2022-07-29T15:45:19;28.60;99.90
59128;DHT22;44912;52.754;5.994;2022-07-29T15:47:45;28.70;99.90
59128;DHT22;44912;52.754;5.994;2022-07-29T15:50:10;28.70;99.90
59128;DHT22;44912;52.754;5.994;2022-07-29T15:52:41;28.80;99.90
59128;DHT22;44912;52.754;5.994;2022-07-29T15:55:07;28.80;99.90
59128;DHT22;44912;52.754;5.994;2022-07-29T15:57:32;28.80;99.90
59128;DHT22;44912;52.754;5.994;2022-07-29T15:59:58;28.90;99.50
59128;DHT22;44912;52.754;5.994;2022-07-29T16:02:24;28.90;99.20
59128;DHT22;44912;52.754;5.994;2022-07-29T16:04:49;28.90;97.90
59128;DHT22;44912;52.754;5.994;2022-07-29T16:07:15;28.70;97.50
59128;DHT22;44912;52.754;5.994;2022-07-29T16:09:41;28.60;98.10
59128;DHT22;44912;52.754;5.994;2022-07-29T16:12:07;28.80;99.60
59128;DHT22;44912;52.754;5.994;2022-07-29T16:14:33;29.00;99.90